sensor_id;sensor_type;location;lat;lon;timestamp;pressure;altitude;pressure_sealevel;temperature
81399;BMP280;70853;50.074;10.224;2024-01-07T00:01:38;97910.91;;;4.60
81399;BMP280;70853;50.074;10.224;2024-01-07T00:04:03;97925.47;;;4.72
81399;BMP280;70853;50.074;10.224;2024-01-07T00:06:29;97932.59;;;4.77
81399;BMP280;70853;50.074;10.224;2024-01-07T00:08:54;97936.91;;;4.80
81399;BMP280;70853;50.074;10.224;2024-01-07T00:11:19;97919.84;;;4.81
81399;BMP280;70853;50.074;10.224;2024-01-07T00:13:45;97938.31;;;4.87
81399;BMP280;70853;50.074;10.224;2024-01-07T00:16:11;97951.38;;;4.98
81399;BMP280;70853;50.074;10.224;2024-01-07T00:18:36;97949.09;;;4.89
81399;BMP280;70853;50.074;10.224;2024-01-07T00:21:02;97932.56;;;4.83
81399;BMP280;70853;50.074;10.224;2024-01-07T00:23:27;97958.13;;;4.93
81399;BMP280;70853;50.074;10.224;2024-01-07T00:25:53;97939.81;;;4.77
81399;BMP280;70853;50.074;10.224;2024-01-07T00:28:18;97925.78;;;4.63
81399;BMP280;70853;50.074;10.224;2024-01-07T00:30:44;97964.22;;;4.88
81399;BMP280;70853;50.074;10.224;2024-01-07T00:33:09;97944.59;;;4.78
81399;BMP280;70853;50.074;10.224;2024-01-07T00:35:34;97942.94;;;4.75
81399;BMP280;70853;50.074;10.224;2024-01-07T00:38:00;97954.41;;;4.83
81399;BMP280;70853;50.074;10.224;2024-01-07T00:40:25;97941.97;;;4.78
81399;BMP280;70853;50.074;10.224;2024-01-07T00:42:51;97961.09;;;4.90
81399;BMP280;70853;50.074;10.224;2024-01-07T00:45:17;97966.66;;;4.86
81399;BMP280;70853;50.074;10.224;2024-01-07T00:47:43;97961.84;;;4.85
81399;BMP280;70853;50.074;10.224;2024-01-07T00:50:09;97967.63;;;4.83
81399;BMP280;70853;50.074;10.224;2024-01-07T00:52:34;97952.25;;;4.82
81399;BMP280;70853;50.074;10.224;2024-01-07T00:55:05;97958.34;;;4.95
81399;BMP280;70853;50.074;10.224;2024-01-07T00:57:32;97929.66;;;4.56
81399;BMP280;70853;50.074;10.224;2024-01-07T00:59:58;97949.28;;;4.67
81399;BMP280;70853;50.074;10.224;2024-01-07T01:02:24;97955.00;;;4.71
81399;BMP280;70853;50.074;10.224;2024-01-07T01:04:49;97962.88;;;4.76
81399;BMP280;70853;50.074;10.224;2024-01-07T01:07:15;97932.16;;;4.49
81399;BMP280;70853;50.074;10.224;2024-01-07T01:09:40;97968.47;;;4.67
81399;BMP280;70853;50.074;10.224;2024-01-07T01:12:06;97963.19;;;4.67
81399;BMP280;70853;50.074;10.224;2024-01-07T01:14:31;97958.41;;;4.66
81399;BMP280;70853;50.074;10.224;2024-01-07T01:16:57;97961.75;;;4.66
81399;BMP280;70853;50.074;10.224;2024-01-07T01:19:24;97978.47;;;4.80
81399;BMP280;70853;50.074;10.224;2024-01-07T01:21:49;97965.59;;;4.65
81399;BMP280;70853;50.074;10.224;2024-01-07T01:24:15;97978.50;;;4.74
81399;BMP280;70853;50.074;10.224;2024-01-07T01:26:41;97929.16;;;4.34
81399;BMP280;70853;50.074;10.224;2024-01-07T01:29:06;97985.28;;;4.70
81399;BMP280;70853;50.074;10.224;2024-01-07T01:31:32;97973.09;;;4.61
81399;BMP280;70853;50.074;10.224;2024-01-07T01:33:57;97982.13;;;4.71
81399;BMP280;70853;50.074;10.224;2024-01-07T01:36:23;97969.50;;;4.58
81399;BMP280;70853;50.074;10.224;2024-01-07T01:38:49;97982.47;;;4.62
81399;BMP280;70853;50.074;10.224;2024-01-07T01:41:15;97978.66;;;4.57
81399;BMP280;70853;50.074;10.224;2024-01-07T01:43:41;97996.78;;;4.72
81399;BMP280;70853;50.074;10.224;2024-01-07T01:46:07;97993.69;;;4.68
81399;BMP280;70853;50.074;10.224;2024-01-07T01:48:33;98010.25;;;4.69
81399;BMP280;70853;50.074;10.224;2024-01-07T01:50:59;97998.78;;;4.61
81399;BMP280;70853;50.074;10.224;2024-01-07T01:53:26;97993.56;;;4.55
81399;BMP280;70853;50.074;10.224;2024-01-07T01:55:52;98002.88;;;4.62
81399;BMP280;70853;50.074;10.224;2024-01-07T01:58:20;97989.78;;;4.45
81399;BMP280;70853;50.074;10.224;2024-01-07T02:00:46;98002.69;;;4.54
81399;BMP280;70853;50.074;10.224;2024-01-07T02:03:11;98006.09;;;4.49
81399;BMP280;70853;50.074;10.224;2024-01-07T02:05:37;97996.25;;;4.49
81399;BMP280;70853;50.074;10.224;2024-01-07T02:08:02;98015.13;;;4.59
81399;BMP280;70853;50.074;10.224;2024-01-07T02:10:29;98014.72;;;4.49
81399;BMP280;70853;50.074;10.224;2024-01-07T02:13:00;97995.41;;;4.36
81399;BMP280;70853;50.074;10.224;2024-01-07T02:15:26;98001.41;;;4.36
81399;BMP280;70853;50.074;10.224;2024-01-07T02:17:51;97985.84;;;4.27
81399;BMP280;70853;50.074;10.224;2024-01-07T02:20:17;97995.88;;;4.34
81399;BMP280;70853;50.074;10.224;2024-01-07T02:22:42;97982.72;;;4.29
81399;BMP280;70853;50.074;10.224;2024-01-07T02:25:08;98014.53;;;4.42
81399;BMP280;70853;50.074;10.224;2024-01-07T02:27:34;97986.81;;;4.18
81399;BMP280;70853;50.074;10.224;2024-01-07T02:29:59;98006.00;;;4.25
81399;BMP280;70853;50.074;10.224;2024-01-07T02:32:25;97996.91;;;4.20
81399;BMP280;70853;50.074;10.224;2024-01-07T02:34:50;98009.81;;;4.29
81399;BMP280;70853;50.074;10.224;2024-01-07T02:37:16;98006.78;;;4.14
81399;BMP280;70853;50.074;10.224;2024-01-07T02:39:41;97999.59;;;4.14
81399;BMP280;70853;50.074;10.224;2024-01-07T02:42:07;97998.44;;;4.04
81399;BMP280;70853;50.074;10.224;2024-01-07T02:44:33;98011.13;;;4.11
81399;BMP280;70853;50.074;10.224;2024-01-07T02:46:58;97996.03;;;4.06
81399;BMP280;70853;50.074;10.224;2024-01-07T02:49:24;97986.72;;;4.00
81399;BMP280;70853;50.074;10.224;2024-01-07T02:51:49;97991.72;;;4.03
81399;BMP280;70853;50.074;10.224;2024-01-07T02:54:15;98000.16;;;3.96
81399;BMP280;70853;50.074;10.224;2024-01-07T02:56:41;97997.00;;;4.03
81399;BMP280;70853;50.074;10.224;2024-01-07T02:59:06;98009.50;;;4.03
81399;BMP280;70853;50.074;10.224;2024-01-07T03:01:32;98009.28;;;3.95
81399;BMP280;70853;50.074;10.224;2024-01-07T03:03:57;97990.41;;;3.80
81399;BMP280;70853;50.074;10.224;2024-01-07T03:06:26;98015.97;;;3.96
81399;BMP280;70853;50.074;10.224;2024-01-07T03:08:53;98011.00;;;3.87
81399;BMP280;70853;50.074;10.224;2024-01-07T03:11:19;98026.31;;;3.94
81399;BMP280;70853;50.074;10.224;2024-01-07T03:13:44;97993.06;;;3.74
81399;BMP280;70853;50.074;10.224;2024-01-07T03:16:19;98021.25;;;3.96
81399;BMP280;70853;50.074;10.224;2024-01-07T03:18:44;98032.09;;;3.93
81399;BMP280;70853;50.074;10.224;2024-01-07T03:21:16;98022.53;;;3.78
81399;BMP280;70853;50.074;10.224;2024-01-07T03:23:42;98030.66;;;3.86
81399;BMP280;70853;50.074;10.224;2024-01-07T03:26:08;98035.75;;;3.78
81399;BMP280;70853;50.074;10.224;2024-01-07T03:28:33;98026.41;;;3.72
81399;BMP280;70853;50.074;10.224;2024-01-07T03:31:04;98033.34;;;3.75
81399;BMP280;70853;50.074;10.224;2024-01-07T03:33:30;98025.41;;;3.80
81399;BMP280;70853;50.074;10.224;2024-01-07T03:35:55;98006.78;;;3.62
81399;BMP280;70853;50.074;10.224;2024-01-07T03:38:21;98031.94;;;3.68
81399;BMP280;70853;50.074;10.224;2024-01-07T03:40:46;98030.28;;;3.65
81399;BMP280;70853;50.074;10.224;2024-01-07T03:43:12;98038.66;;;3.69
81399;BMP280;70853;50.074;10.224;2024-01-07T03:45:37;98058.28;;;3.74
81399;BMP280;70853;50.074;10.224;2024-01-07T03:48:02;98047.78;;;3.68
81399;BMP280;70853;50.074;10.224;2024-01-07T03:50:28;98050.41;;;3.57
81399;BMP280;70853;50.074;10.224;2024-01-07T03:52:53;98047.56;;;3.55
81399;BMP280;70853;50.074;10.224;2024-01-07T03:55:19;98043.25;;;3.52
81399;BMP280;70853;50.074;10.224;2024-01-07T03:57:44;98061.91;;;3.65
81399;BMP280;70853;50.074;10.224;2024-01-07T04:00:10;98071.03;;;3.59
81399;BMP280;70853;50.074;10.224;2024-01-07T04:02:36;98059.03;;;3.58
81399;BMP280;70853;50.074;10.224;2024-01-07T04:05:01;98049.97;;;3.47
81399;BMP280;70853;50.074;10.224;2024-01-07T04:07:26;98071.50;;;3.57
81399;BMP280;70853;50.074;10.224;2024-01-07T04:09:52;98018.66;;;3.22
81399;BMP280;70853;50.074;10.224;2024-01-07T04:12:17;98033.69;;;3.32
81399;BMP280;70853;50.074;10.224;2024-01-07T04:14:43;98060.53;;;3.47
81399;BMP280;70853;50.074;10.224;2024-01-07T04:17:09;98055.72;;;3.35
81399;BMP280;70853;50.074;10.224;2024-01-07T04:19:36;98075.63;;;3.47
81399;BMP280;70853;50.074;10.224;2024-01-07T04:22:03;98078.69;;;3.57
81399;BMP280;70853;50.074;10.224;2024-01-07T04:24:28;98075.38;;;3.50
81399;BMP280;70853;50.074;10.224;2024-01-07T04:26:54;98088.28;;;3.60
81399;BMP280;70853;50.074;10.224;2024-01-07T04:29:19;98077.03;;;3.54
81399;BMP280;70853;50.074;10.224;2024-01-07T04:31:44;98074.88;;;3.52
81399;BMP280;70853;50.074;10.224;2024-01-07T04:34:10;98079.44;;;3.52
81399;BMP280;70853;50.074;10.224;2024-01-07T04:36:36;98090.19;;;3.65
81399;BMP280;70853;50.074;10.224;2024-01-07T04:39:09;98095.72;;;3.56
81399;BMP280;70853;50.074;10.224;2024-01-07T04:41:35;98096.22;;;3.48
81399;BMP280;70853;50.074;10.224;2024-01-07T04:44:00;98093.34;;;3.35
81399;BMP280;70853;50.074;10.224;2024-01-07T04:46:26;98118.03;;;3.49
81399;BMP280;70853;50.074;10.224;2024-01-07T04:48:51;98108.69;;;3.31
81399;BMP280;70853;50.074;10.224;2024-01-07T04:51:17;98100.09;;;3.20
81399;BMP280;70853;50.074;10.224;2024-01-07T04:53:42;98119.47;;;3.33
81399;BMP280;70853;50.074;10.224;2024-01-07T04:56:08;98125.97;;;3.21
81399;BMP280;70853;50.074;10.224;2024-01-07T04:58:33;98120.19;;;3.28
81399;BMP280;70853;50.074;10.224;2024-01-07T05:00:58;98132.16;;;3.29
81399;BMP280;70853;50.074;10.224;2024-01-07T05:03:24;98131.47;;;3.45
81399;BMP280;70853;50.074;10.224;2024-01-07T05:05:49;98120.19;;;3.34
81399;BMP280;70853;50.074;10.224;2024-01-07T05:08:15;98135.78;;;3.54
81399;BMP280;70853;50.074;10.224;2024-01-07T05:10:40;98144.66;;;3.45
81399;BMP280;70853;50.074;10.224;2024-01-07T05:13:06;98136.03;;;3.39
81399;BMP280;70853;50.074;10.224;2024-01-07T05:15:32;98153.53;;;3.42
81399;BMP280;70853;50.074;10.224;2024-01-07T05:17:58;98155.41;;;3.59
81399;BMP280;70853;50.074;10.224;2024-01-07T05:20:23;98148.47;;;3.39
81399;BMP280;70853;50.074;10.224;2024-01-07T05:22:49;98149.19;;;3.28
81399;BMP280;70853;50.074;10.224;2024-01-07T05:25:14;98149.22;;;3.23
81399;BMP280;70853;50.074;10.224;2024-01-07T05:27:40;98159.25;;;3.30
81399;BMP280;70853;50.074;10.224;2024-01-07T05:30:06;98150.84;;;3.09
81399;BMP280;70853;50.074;10.224;2024-01-07T05:32:33;98153.25;;;3.07
81399;BMP280;70853;50.074;10.224;2024-01-07T05:34:58;98172.91;;;3.28
81399;BMP280;70853;50.074;10.224;2024-01-07T05:37:24;98171.44;;;3.05
81399;BMP280;70853;50.074;10.224;2024-01-07T05:39:49;98190.34;;;3.03
81399;BMP280;70853;50.074;10.224;2024-01-07T05:42:14;98163.47;;;2.77
81399;BMP280;70853;50.074;10.224;2024-01-07T05:44:40;98173.03;;;2.74
81399;BMP280;70853;50.074;10.224;2024-01-07T05:47:05;98190.81;;;2.85
81399;BMP280;70853;50.074;10.224;2024-01-07T05:49:31;98194.38;;;2.82
81399;BMP280;70853;50.074;10.224;2024-01-07T05:51:56;98185.00;;;2.70
81399;BMP280;70853;50.074;10.224;2024-01-07T05:54:22;98181.88;;;2.66
81399;BMP280;70853;50.074;10.224;2024-01-07T05:56:53;98204.38;;;2.61
81399;BMP280;70853;50.074;10.224;2024-01-07T05:59:18;98206.25;;;2.55
81399;BMP280;70853;50.074;10.224;2024-01-07T06:01:44;98197.59;;;2.49
81399;BMP280;70853;50.074;10.224;2024-01-07T06:04:11;98204.28;;;2.39
81399;BMP280;70853;50.074;10.224;2024-01-07T06:06:37;98197.06;;;2.34
81399;BMP280;70853;50.074;10.224;2024-01-07T06:09:02;98217.47;;;2.50
81399;BMP280;70853;50.074;10.224;2024-01-07T06:11:27;98222.19;;;2.35
81399;BMP280;70853;50.074;10.224;2024-01-07T06:13:53;98215.94;;;2.27
81399;BMP280;70853;50.074;10.224;2024-01-07T06:16:18;98226.66;;;2.23
81399;BMP280;70853;50.074;10.224;2024-01-07T06:18:44;98239.69;;;2.38
81399;BMP280;70853;50.074;10.224;2024-01-07T06:21:09;98242.72;;;2.31
81399;BMP280;70853;50.074;10.224;2024-01-07T06:23:35;98245.81;;;2.24
81399;BMP280;70853;50.074;10.224;2024-01-07T06:26:04;98237.59;;;2.11
81399;BMP280;70853;50.074;10.224;2024-01-07T06:28:29;98233.84;;;2.23
81399;BMP280;70853;50.074;10.224;2024-01-07T06:30:55;98248.75;;;2.00
81399;BMP280;70853;50.074;10.224;2024-01-07T06:33:20;98257.91;;;2.10
81399;BMP280;70853;50.074;10.224;2024-01-07T06:35:46;98241.47;;;1.84
81399;BMP280;70853;50.074;10.224;2024-01-07T06:38:11;98257.03;;;1.87
81399;BMP280;70853;50.074;10.224;2024-01-07T06:40:37;98252.50;;;1.93
81399;BMP280;70853;50.074;10.224;2024-01-07T06:43:03;98265.03;;;2.04
81399;BMP280;70853;50.074;10.224;2024-01-07T06:45:28;98255.91;;;1.99
81399;BMP280;70853;50.074;10.224;2024-01-07T06:47:53;98264.06;;;2.01
81399;BMP280;70853;50.074;10.224;2024-01-07T06:50:23;98261.13;;;1.62
81399;BMP280;70853;50.074;10.224;2024-01-07T06:52:48;98280.25;;;1.63
81399;BMP280;70853;50.074;10.224;2024-01-07T06:55:14;98277.09;;;1.59
81399;BMP280;70853;50.074;10.224;2024-01-07T06:57:40;98293.09;;;1.81
81399;BMP280;70853;50.074;10.224;2024-01-07T07:00:06;98293.53;;;1.80
81399;BMP280;70853;50.074;10.224;2024-01-07T07:02:33;98278.13;;;1.67
81399;BMP280;70853;50.074;10.224;2024-01-07T07:04:58;98308.59;;;1.79
81399;BMP280;70853;50.074;10.224;2024-01-07T07:07:23;98282.81;;;1.57
81399;BMP280;70853;50.074;10.224;2024-01-07T07:09:49;98312.69;;;1.80
81399;BMP280;70853;50.074;10.224;2024-01-07T07:12:15;98284.53;;;1.60
81399;BMP280;70853;50.074;10.224;2024-01-07T07:14:40;98305.19;;;1.73
81399;BMP280;70853;50.074;10.224;2024-01-07T07:17:06;98306.75;;;1.85
81399;BMP280;70853;50.074;10.224;2024-01-07T07:19:32;98303.63;;;1.87
81399;BMP280;70853;50.074;10.224;2024-01-07T07:21:57;98313.88;;;1.79
81399;BMP280;70853;50.074;10.224;2024-01-07T07:24:22;98314.59;;;1.80
81399;BMP280;70853;50.074;10.224;2024-01-07T07:26:48;98338.06;;;1.83
81399;BMP280;70853;50.074;10.224;2024-01-07T07:29:13;98333.78;;;1.86
81399;BMP280;70853;50.074;10.224;2024-01-07T07:31:39;98329.06;;;1.69
81399;BMP280;70853;50.074;10.224;2024-01-07T07:34:05;98346.72;;;1.69
81399;BMP280;70853;50.074;10.224;2024-01-07T07:36:31;98347.97;;;1.73
81399;BMP280;70853;50.074;10.224;2024-01-07T07:38:57;98340.69;;;1.83
81399;BMP280;70853;50.074;10.224;2024-01-07T07:41:22;98342.78;;;1.79
81399;BMP280;70853;50.074;10.224;2024-01-07T07:43:48;98346.53;;;1.72
81399;BMP280;70853;50.074;10.224;2024-01-07T07:46:13;98333.28;;;1.61
81399;BMP280;70853;50.074;10.224;2024-01-07T07:48:44;98365.94;;;1.75
81399;BMP280;70853;50.074;10.224;2024-01-07T07:51:10;98366.78;;;1.92
81399;BMP280;70853;50.074;10.224;2024-01-07T07:53:38;98372.09;;;1.98
81399;BMP280;70853;50.074;10.224;2024-01-07T07:56:05;98358.66;;;1.90
81399;BMP280;70853;50.074;10.224;2024-01-07T07:58:30;98365.09;;;1.89
81399;BMP280;70853;50.074;10.224;2024-01-07T08:00:58;98358.88;;;1.66
81399;BMP280;70853;50.074;10.224;2024-01-07T08:03:26;98378.03;;;1.93
81399;BMP280;70853;50.074;10.224;2024-01-07T08:05:52;98365.34;;;1.86
81399;BMP280;70853;50.074;10.224;2024-01-07T08:08:18;98347.91;;;1.68
81399;BMP280;70853;50.074;10.224;2024-01-07T08:10:46;98376.13;;;1.93
81399;BMP280;70853;50.074;10.224;2024-01-07T08:13:11;98394.19;;;2.06
81399;BMP280;70853;50.074;10.224;2024-01-07T08:15:37;98337.81;;;1.41
81399;BMP280;70853;50.074;10.224;2024-01-07T08:18:03;98386.56;;;1.82
81399;BMP280;70853;50.074;10.224;2024-01-07T08:20:29;98399.53;;;1.86
81399;BMP280;70853;50.074;10.224;2024-01-07T08:22:58;98383.47;;;1.84
81399;BMP280;70853;50.074;10.224;2024-01-07T08:25:23;98380.47;;;1.96
81399;BMP280;70853;50.074;10.224;2024-01-07T08:27:49;98383.63;;;2.00
81399;BMP280;70853;50.074;10.224;2024-01-07T08:30:15;98390.97;;;2.17
81399;BMP280;70853;50.074;10.224;2024-01-07T08:32:41;98371.25;;;1.81
81399;BMP280;70853;50.074;10.224;2024-01-07T08:35:07;98373.69;;;1.84
81399;BMP280;70853;50.074;10.224;2024-01-07T08:37:36;98398.22;;;1.55
81399;BMP280;70853;50.074;10.224;2024-01-07T08:40:02;98399.13;;;1.72
81399;BMP280;70853;50.074;10.224;2024-01-07T08:42:28;98404.06;;;1.85
81399;BMP280;70853;50.074;10.224;2024-01-07T08:44:55;98395.19;;;1.62
81399;BMP280;70853;50.074;10.224;2024-01-07T08:47:21;98408.66;;;1.70
81399;BMP280;70853;50.074;10.224;2024-01-07T08:49:46;98403.09;;;1.88
81399;BMP280;70853;50.074;10.224;2024-01-07T08:52:12;98408.53;;;1.79
81399;BMP280;70853;50.074;10.224;2024-01-07T08:54:37;98394.59;;;1.73
81399;BMP280;70853;50.074;10.224;2024-01-07T08:57:03;98409.44;;;1.76
81399;BMP280;70853;50.074;10.224;2024-01-07T08:59:28;98405.25;;;1.64
81399;BMP280;70853;50.074;10.224;2024-01-07T09:01:54;98423.38;;;1.82
81399;BMP280;70853;50.074;10.224;2024-01-07T09:04:20;98398.22;;;1.55
81399;BMP280;70853;50.074;10.224;2024-01-07T09:06:45;98427.88;;;2.02
81399;BMP280;70853;50.074;10.224;2024-01-07T09:09:11;98424.09;;;1.62
81399;BMP280;70853;50.074;10.224;2024-01-07T09:11:36;98415.50;;;1.62
81399;BMP280;70853;50.074;10.224;2024-01-07T09:14:05;98426.50;;;1.46
81399;BMP280;70853;50.074;10.224;2024-01-07T09:16:31;98435.84;;;1.47
81399;BMP280;70853;50.074;10.224;2024-01-07T09:18:56;98435.47;;;1.54
81399;BMP280;70853;50.074;10.224;2024-01-07T09:21:22;98432.03;;;1.48
81399;BMP280;70853;50.074;10.224;2024-01-07T09:23:48;98431.19;;;1.77
81399;BMP280;70853;50.074;10.224;2024-01-07T09:26:14;98434.72;;;1.94
81399;BMP280;70853;50.074;10.224;2024-01-07T09:28:40;98451.44;;;1.91
81399;BMP280;70853;50.074;10.224;2024-01-07T09:31:06;98445.97;;;1.54
81399;BMP280;70853;50.074;10.224;2024-01-07T09:33:31;98440.00;;;1.73
81399;BMP280;70853;50.074;10.224;2024-01-07T09:35:57;98455.47;;;1.86
81399;BMP280;70853;50.074;10.224;2024-01-07T09:38:22;98458.47;;;1.79
81399;BMP280;70853;50.074;10.224;2024-01-07T09:40:50;98469.91;;;1.56
81399;BMP280;70853;50.074;10.224;2024-01-07T09:43:16;98467.81;;;1.60
81399;BMP280;70853;50.074;10.224;2024-01-07T09:45:42;98468.94;;;1.73
81399;BMP280;70853;50.074;10.224;2024-01-07T09:48:09;98456.72;;;1.35
81399;BMP280;70853;50.074;10.224;2024-01-07T09:50:35;98453.25;;;1.44
81399;BMP280;70853;50.074;10.224;2024-01-07T09:53:01;98465.47;;;1.82
81399;BMP280;70853;50.074;10.224;2024-01-07T09:55:33;98462.81;;;1.62
81399;BMP280;70853;50.074;10.224;2024-01-07T09:58:01;98478.97;;;1.55
81399;BMP280;70853;50.074;10.224;2024-01-07T10:00:27;98461.66;;;1.28
81399;BMP280;70853;50.074;10.224;2024-01-07T10:02:53;98476.69;;;1.62
81399;BMP280;70853;50.074;10.224;2024-01-07T10:05:19;98468.34;;;1.64
81399;BMP280;70853;50.074;10.224;2024-01-07T10:07:45;98453.16;;;1.73
81399;BMP280;70853;50.074;10.224;2024-01-07T10:10:17;98463.50;;;1.42
81399;BMP280;70853;50.074;10.224;2024-01-07T10:12:46;98452.78;;;1.25
81399;BMP280;70853;50.074;10.224;2024-01-07T10:15:12;98463.94;;;1.20
81399;BMP280;70853;50.074;10.224;2024-01-07T10:17:44;98456.78;;;1.41
81399;BMP280;70853;50.074;10.224;2024-01-07T10:20:11;98480.41;;;1.56
81399;BMP280;70853;50.074;10.224;2024-01-07T10:22:37;98468.00;;;1.21
81399;BMP280;70853;50.074;10.224;2024-01-07T10:25:06;98464.00;;;1.26
81399;BMP280;70853;50.074;10.224;2024-01-07T10:27:36;98471.91;;;1.46
81399;BMP280;70853;50.074;10.224;2024-01-07T10:30:05;98473.47;;;1.73
81399;BMP280;70853;50.074;10.224;2024-01-07T10:32:30;98476.81;;;1.73
81399;BMP280;70853;50.074;10.224;2024-01-07T10:35:03;98477.75;;;1.91
81399;BMP280;70853;50.074;10.224;2024-01-07T10:37:30;98494.38;;;1.82
81399;BMP280;70853;50.074;10.224;2024-01-07T10:40:00;98495.53;;;1.61
81399;BMP280;70853;50.074;10.224;2024-01-07T10:42:34;98497.84;;;1.73
81399;BMP280;70853;50.074;10.224;2024-01-07T10:45:00;98494.31;;;1.77
81399;BMP280;70853;50.074;10.224;2024-01-07T10:47:31;98503.09;;;1.53
81399;BMP280;70853;50.074;10.224;2024-01-07T10:49:58;98512.94;;;1.58
81399;BMP280;70853;50.074;10.224;2024-01-07T10:52:26;98495.91;;;1.19
81399;BMP280;70853;50.074;10.224;2024-01-07T10:54:56;98524.59;;;1.72
81399;BMP280;70853;50.074;10.224;2024-01-07T10:59:59;98524.22;;;1.44
81399;BMP280;70853;50.074;10.224;2024-01-07T11:02:26;98512.50;;;1.45
81399;BMP280;70853;50.074;10.224;2024-01-07T11:05:17;98522.13;;;1.48
81399;BMP280;70853;50.074;10.224;2024-01-07T11:07:53;98524.81;;;1.19
81399;BMP280;70853;50.074;10.224;2024-01-07T11:10:26;98512.03;;;0.67
81399;BMP280;70853;50.074;10.224;2024-01-07T11:12:56;98512.31;;;0.69
81399;BMP280;70853;50.074;10.224;2024-01-07T11:18:17;98537.13;;;0.98
81399;BMP280;70853;50.074;10.224;2024-01-07T11:20:43;98531.94;;;0.89
81399;BMP280;70853;50.074;10.224;2024-01-07T11:23:28;98535.31;;;1.04
81399;BMP280;70853;50.074;10.224;2024-01-07T11:25:57;98523.44;;;0.79
81399;BMP280;70853;50.074;10.224;2024-01-07T11:28:46;98525.69;;;0.72
81399;BMP280;70853;50.074;10.224;2024-01-07T11:31:15;98530.94;;;0.72
81399;BMP280;70853;50.074;10.224;2024-01-07T11:33:48;98522.53;;;0.82
81399;BMP280;70853;50.074;10.224;2024-01-07T11:36:18;98525.97;;;0.88
81399;BMP280;70853;50.074;10.224;2024-01-07T11:38:50;98516.56;;;0.82
81399;BMP280;70853;50.074;10.224;2024-01-07T11:41:16;98522.31;;;0.56
81399;BMP280;70853;50.074;10.224;2024-01-07T11:43:52;98531.06;;;0.77
81399;BMP280;70853;50.074;10.224;2024-01-07T11:46:23;98530.81;;;1.05
81399;BMP280;70853;50.074;10.224;2024-01-07T11:48:52;98517.38;;;0.73
81399;BMP280;70853;50.074;10.224;2024-01-07T11:51:18;98517.09;;;0.86
81399;BMP280;70853;50.074;10.224;2024-01-07T11:53:46;98514.38;;;1.10
81399;BMP280;70853;50.074;10.224;2024-01-07T11:56:14;98504.69;;;0.86
81399;BMP280;70853;50.074;10.224;2024-01-07T11:58:40;98479.88;;;0.58
81399;BMP280;70853;50.074;10.224;2024-01-07T12:01:08;98499.78;;;0.64
81399;BMP280;70853;50.074;10.224;2024-01-07T12:03:34;98515.31;;;0.77
81399;BMP280;70853;50.074;10.224;2024-01-07T12:06:03;98429.28;;;0.28
81399;BMP280;70853;50.074;10.224;2024-01-07T12:08:29;98503.97;;;0.71
81399;BMP280;70853;50.074;10.224;2024-01-07T12:10:56;98472.16;;;0.40
81399;BMP280;70853;50.074;10.224;2024-01-07T12:13:22;98512.47;;;0.66
81399;BMP280;70853;50.074;10.224;2024-01-07T12:15:48;98524.97;;;0.71
81399;BMP280;70853;50.074;10.224;2024-01-07T12:18:14;98518.66;;;0.78
81399;BMP280;70853;50.074;10.224;2024-01-07T12:20:40;98516.16;;;0.59
81399;BMP280;70853;50.074;10.224;2024-01-07T12:23:09;98511.91;;;0.62
81399;BMP280;70853;50.074;10.224;2024-01-07T12:25:36;98524.81;;;0.75
81399;BMP280;70853;50.074;10.224;2024-01-07T12:28:02;98527.16;;;0.87
81399;BMP280;70853;50.074;10.224;2024-01-07T12:30:31;98509.50;;;0.73
81399;BMP280;70853;50.074;10.224;2024-01-07T12:32:57;98536.53;;;0.64
81399;BMP280;70853;50.074;10.224;2024-01-07T12:35:25;98515.59;;;0.55
81399;BMP280;70853;50.074;10.224;2024-01-07T12:37:52;98537.75;;;0.93
81399;BMP280;70853;50.074;10.224;2024-01-07T12:40:17;98541.00;;;0.73
81399;BMP280;70853;50.074;10.224;2024-01-07T12:42:45;98521.28;;;0.39
81399;BMP280;70853;50.074;10.224;2024-01-07T12:45:13;98513.25;;;0.04
81399;BMP280;70853;50.074;10.224;2024-01-07T12:47:40;98546.88;;;0.29
81399;BMP280;70853;50.074;10.224;2024-01-07T12:50:08;98539.81;;;0.21
81399;BMP280;70853;50.074;10.224;2024-01-07T12:52:36;98528.06;;;0.31
81399;BMP280;70853;50.074;10.224;2024-01-07T12:55:03;98532.56;;;0.16
81399;BMP280;70853;50.074;10.224;2024-01-07T12:57:29;98544.16;;;0.24
81399;BMP280;70853;50.074;10.224;2024-01-07T12:59:54;98537.38;;;0.32
81399;BMP280;70853;50.074;10.224;2024-01-07T13:02:20;98544.66;;;0.13
81399;BMP280;70853;50.074;10.224;2024-01-07T13:04:48;98558.47;;;0.38
81399;BMP280;70853;50.074;10.224;2024-01-07T13:07:14;98555.19;;;0.28
81399;BMP280;70853;50.074;10.224;2024-01-07T13:09:39;98550.88;;;0.40
81399;BMP280;70853;50.074;10.224;2024-01-07T13:12:11;98526.63;;;0.06
81399;BMP280;70853;50.074;10.224;2024-01-07T13:14:36;98566.31;;;-0.01
81399;BMP280;70853;50.074;10.224;2024-01-07T13:17:02;98560.22;;;-0.07
81399;BMP280;70853;50.074;10.224;2024-01-07T13:19:28;98554.38;;;-0.02
81399;BMP280;70853;50.074;10.224;2024-01-07T13:21:54;98570.88;;;0.13
81399;BMP280;70853;50.074;10.224;2024-01-07T13:24:21;98564.50;;;0.29
81399;BMP280;70853;50.074;10.224;2024-01-07T13:26:47;98577.59;;;0.14
81399;BMP280;70853;50.074;10.224;2024-01-07T13:29:14;98572.09;;;0.51
81399;BMP280;70853;50.074;10.224;2024-01-07T13:31:39;98591.34;;;0.48
81399;BMP280;70853;50.074;10.224;2024-01-07T13:34:05;98579.09;;;0.68
81399;BMP280;70853;50.074;10.224;2024-01-07T13:36:31;98597.88;;;0.52
81399;BMP280;70853;50.074;10.224;2024-01-07T13:38:56;98592.47;;;0.32
81399;BMP280;70853;50.074;10.224;2024-01-07T13:41:25;98586.13;;;0.24
81399;BMP280;70853;50.074;10.224;2024-01-07T13:43:56;98606.47;;;0.05
81399;BMP280;70853;50.074;10.224;2024-01-07T13:46:21;98601.03;;;-0.15
81399;BMP280;70853;50.074;10.224;2024-01-07T13:48:48;98587.06;;;0.12
81399;BMP280;70853;50.074;10.224;2024-01-07T13:51:14;98623.63;;;-0.27
81399;BMP280;70853;50.074;10.224;2024-01-07T13:53:40;98625.97;;;-0.38
81399;BMP280;70853;50.074;10.224;2024-01-07T13:56:06;98620.75;;;-0.47
81399;BMP280;70853;50.074;10.224;2024-01-07T13:58:32;98611.84;;;-0.41
81399;BMP280;70853;50.074;10.224;2024-01-07T14:00:58;98636.25;;;-0.07
81399;BMP280;70853;50.074;10.224;2024-01-07T14:03:23;98627.72;;;-0.44
81399;BMP280;70853;50.074;10.224;2024-01-07T14:05:49;98607.41;;;-0.68
81399;BMP280;70853;50.074;10.224;2024-01-07T14:08:16;98647.69;;;-0.47
81399;BMP280;70853;50.074;10.224;2024-01-07T14:10:42;98635.16;;;-0.43